Time;durP1;ratioP1;P1;durP2;ratioP2;P2;SDS_P1;SDS_P2;PMS_P1;PMS_P2;Temp;Humidity;BMP_temperature;BMP_pressure;BME280_temperature;BME280_humidity;BME280_pressure;Samples;Min_cycle;Max_cycle;Signal;HPM_P1;HPM_P2
2021/09/17 00:00:41;;;;;;;26.08;20.90;;;15.90;99.90;;;;;;5031978;28;20364;-85
2021/09/17 00:03:07;;;;;;;25.83;21.58;;;15.90;99.90;;;;;;5020210;28;20033;-85
2021/09/17 00:05:33;;;;;;;26.42;21.20;;;15.90;99.90;;;;;;5027372;28;20525;-86
2021/09/17 00:07:59;;;;;;;25.67;22.20;;;15.80;99.90;;;;;;5022949;28;20033;-86
2021/09/17 00:10:26;;;;;;;25.92;21.27;;;15.80;99.90;;;;;;5033311;28;20032;-86
2021/09/17 00:12:52;;;;;;;26.83;22.27;;;15.80;99.90;;;;;;5016971;28;20030;-85
2021/09/17 00:15:18;;;;;;;24.65;20.35;;;15.90;99.90;;;;;;5017191;28;20024;-84
2021/09/17 00:17:45;;;;;;;24.60;20.85;;;15.90;99.90;;;;;;5027162;28;20029;-86
2021/09/17 00:20:13;;;;;;;25.05;20.73;;;15.90;99.90;;;;;;5024460;28;20018;-86
2021/09/17 00:22:40;;;;;;;28.10;22.20;;;15.90;99.90;;;;;;5034436;28;20104;-85
2021/09/17 00:25:08;;;;;;;24.88;21.20;;;15.90;99.90;;;;;;5016740;28;20378;-85
2021/09/17 00:27:34;;;;;;;27.73;22.65;;;15.90;99.90;;;;;;5027428;28;20129;-86
2021/09/17 00:30:00;;;;;;;26.85;21.63;;;15.90;99.90;;;;;;5022607;28;20037;-85
2021/09/17 00:32:26;;;;;;;25.85;21.13;;;15.90;99.90;;;;;;5032821;28;20120;-86
2021/09/17 00:34:52;;;;;;;25.20;20.58;;;15.90;99.90;;;;;;5016646;28;20173;-85
2021/09/17 00:37:17;;;;;;;23.08;19.70;;;16.00;99.90;;;;;;5031187;28;20089;-85
2021/09/17 00:39:43;;;;;;;25.15;19.63;;;16.00;99.90;;;;;;5020072;28;20468;-85
2021/09/17 00:42:10;;;;;;;26.73;20.15;;;16.00;99.90;;;;;;5032865;28;20025;-86
2021/09/17 00:44:36;;;;;;;27.08;21.83;;;16.00;99.90;;;;;;5018572;28;20048;-85
2021/09/17 00:47:02;;;;;;;26.38;20.52;;;16.00;99.90;;;;;;5030786;28;20037;-85
2021/09/17 00:49:28;;;;;;;27.90;21.90;;;16.00;99.90;;;;;;5027687;28;20034;-86
2021/09/17 00:51:55;;;;;;;27.00;20.70;;;16.00;99.90;;;;;;5020803;28;20029;-86
2021/09/17 00:54:21;;;;;;;24.45;20.45;;;16.00;99.90;;;;;;5032658;28;20021;-86
2021/09/17 00:56:47;;;;;;;26.83;20.60;;;16.00;99.90;;;;;;5016875;28;20053;-85
2021/09/17 00:59:14;;;;;;;26.05;20.80;;;16.00;99.90;;;;;;5032022;28;20025;-85
2021/09/17 01:01:40;;;;;;;25.83;20.52;;;16.00;99.90;;;;;;5025904;28;20038;-85
2021/09/17 01:04:07;;;;;;;26.73;20.80;;;16.00;99.90;;;;;;5024479;28;20466;-86
2021/09/17 01:06:34;;;;;;;24.73;19.77;;;16.00;99.90;;;;;;5035526;28;20100;-85
2021/09/17 01:09:01;;;;;;;27.55;20.90;;;16.00;99.90;;;;;;5019293;28;20039;-85
2021/09/17 01:11:27;;;;;;;25.42;20.27;;;16.00;99.90;;;;;;5048503;28;20423;-85
2021/09/17 01:13:54;;;;;;;27.92;20.05;;;16.00;99.90;;;;;;5024049;28;20024;-85
2021/09/17 01:16:20;;;;;;;28.23;21.05;;;16.00;99.90;;;;;;5041227;28;20022;-86
2021/09/17 01:18:46;;;;;;;25.17;20.42;;;16.00;99.90;;;;;;5031299;28;20142;-85
2021/09/17 01:21:12;;;;;;;25.65;20.75;;;16.00;99.90;;;;;;5036936;28;20029;-86
2021/09/17 01:23:38;;;;;;;34.92;23.75;;;16.00;99.90;;;;;;5046768;28;20036;-84
2021/09/17 01:26:04;;;;;;;30.77;25.10;;;16.00;99.90;;;;;;5025414;28;20029;-85
2021/09/17 01:28:31;;;;;;;33.03;25.10;;;16.00;99.90;;;;;;5052972;28;20036;-85
2021/09/17 01:30:58;;;;;;;30.42;22.90;;;16.00;99.90;;;;;;5019006;28;20529;-86
2021/09/17 01:33:27;;;;;;;27.75;22.00;;;15.90;99.90;;;;;;5030722;28;20017;-87
2021/09/17 01:36:05;;;;;;;28.25;22.30;;;15.90;99.90;;;;;;5023821;28;20033;-85
2021/09/17 01:38:33;;;;;;;26.83;21.65;;;16.00;99.90;;;;;;5021697;28;20025;-84
2021/09/17 01:41:00;;;;;;;27.40;21.85;;;15.90;99.90;;;;;;5050225;28;20124;-85
2021/09/17 01:43:26;;;;;;;28.90;22.15;;;15.90;99.90;;;;;;5030733;28;20462;-86
2021/09/17 01:45:52;;;;;;;28.55;21.75;;;15.90;99.90;;;;;;5040898;28;20527;-86
2021/09/17 01:48:18;;;;;;;30.65;21.77;;;15.90;99.90;;;;;;5035148;28;20427;-85
2021/09/17 01:50:44;;;;;;;29.33;23.23;;;15.90;99.90;;;;;;5037444;28;20354;-86
2021/09/17 01:53:10;;;;;;;41.22;30.88;;;15.90;99.90;;;;;;5031393;28;20087;-85
2021/09/17 01:55:37;;;;;;;37.25;28.08;;;15.80;99.90;;;;;;5021390;28;20033;-85
2021/09/17 01:58:03;;;;;;;35.72;27.10;;;15.80;99.90;;;;;;5035090;28;20063;-86
2021/09/17 02:00:29;;;;;;;30.55;23.92;;;15.70;99.90;;;;;;5021275;28;20120;-85
2021/09/17 02:02:55;;;;;;;33.15;24.90;;;15.80;99.90;;;;;;5031238;28;20040;-85
2021/09/17 02:05:22;;;;;;;29.45;23.90;;;15.80;99.90;;;;;;5018931;28;20041;-85
2021/09/17 02:07:48;;;;;;;30.30;23.73;;;15.80;99.90;;;;;;5035064;28;20021;-84
2021/09/17 02:10:14;;;;;;;29.65;21.98;;;15.80;99.90;;;;;;5041770;28;20025;-85
2021/09/17 02:12:40;;;;;;;31.10;22.95;;;15.80;99.90;;;;;;5029870;28;20116;-86
2021/09/17 02:15:09;;;;;;;31.20;23.45;;;15.80;99.90;;;;;;5018375;28;20021;-85
2021/09/17 02:17:35;;;;;;;29.40;23.02;;;15.80;99.90;;;;;;5029056;28;20021;-85
2021/09/17 02:20:01;;;;;;;29.83;24.58;;;15.90;99.90;;;;;;5042500;28;20025;-85
2021/09/17 02:22:27;;;;;;;30.27;23.50;;;15.80;99.90;;;;;;5039329;28;20067;-85
2021/09/17 02:24:54;;;;;;;29.92;22.92;;;15.80;99.90;;;;;;5031159;28;20040;-85
2021/09/17 02:27:20;;;;;;;31.17;23.50;;;15.80;99.90;;;;;;5018658;28;20029;-86
2021/09/17 02:29:46;;;;;;;33.63;25.70;;;15.80;99.90;;;;;;5027531;28;20022;-86
2021/09/17 02:32:13;;;;;;;31.85;25.00;;;15.80;99.90;;;;;;5025755;28;20461;-86
2021/09/17 02:34:40;;;;;;;31.88;25.48;;;15.80;99.90;;;;;;5034570;28;20048;-85
2021/09/17 02:37:06;;;;;;;30.20;23.38;;;15.80;99.90;;;;;;5021438;28;20037;-85
2021/09/17 02:39:32;;;;;;;33.30;23.42;;;15.80;99.90;;;;;;5050877;28;20053;-86
2021/09/17 02:41:59;;;;;;;30.25;22.80;;;15.80;99.90;;;;;;5027489;28;20033;-85
2021/09/17 02:44:25;;;;;;;28.58;22.55;;;15.80;99.90;;;;;;5038289;28;20025;-86
2021/09/17 02:46:51;;;;;;;30.65;22.52;;;15.80;99.90;;;;;;5039523;28;20029;-85
2021/09/17 02:49:17;;;;;;;30.33;22.63;;;15.80;99.90;;;;;;5018647;28;20060;-87
2021/09/17 02:51:44;;;;;;;29.55;21.95;;;15.80;99.90;;;;;;5041956;28;20021;-86
2021/09/17 02:54:09;;;;;;;29.40;22.65;;;15.80;99.90;;;;;;5027640;28;20049;-86
2021/09/17 02:56:36;;;;;;;29.30;22.40;;;15.80;99.90;;;;;;5050266;28;20104;-85
2021/09/17 02:59:02;;;;;;;32.22;24.58;;;15.80;99.90;;;;;;5021603;28;20022;-86
2021/09/17 03:01:28;;;;;;;31.55;23.30;;;15.80;99.90;;;;;;5033202;28;20025;-86
2021/09/17 03:03:54;;;;;;;32.38;23.33;;;15.80;99.90;;;;;;5026314;28;20107;-86
2021/09/17 03:06:22;;;;;;;30.30;23.33;;;15.80;99.90;;;;;;5026186;28;20477;-86
2021/09/17 03:08:49;;;;;;;30.15;22.00;;;15.80;99.90;;;;;;5033960;28;20142;-85
2021/09/17 03:11:15;;;;;;;28.83;22.27;;;15.80;99.90;;;;;;5021243;28;20021;-86
2021/09/17 03:13:42;;;;;;;30.45;23.23;;;15.80;99.90;;;;;;5048688;28;20469;-86
2021/09/17 03:16:08;;;;;;;32.13;22.85;;;15.80;99.90;;;;;;5027788;28;20024;-85
2021/09/17 03:18:34;;;;;;;31.58;23.23;;;15.80;99.90;;;;;;5023862;28;20025;-85
2021/09/17 03:21:01;;;;;;;35.42;25.17;;;15.90;99.90;;;;;;5051971;28;20033;-85
2021/09/17 03:23:27;;;;;;;32.30;24.20;;;15.90;99.90;;;;;;5022292;28;20025;-85
2021/09/17 03:25:53;;;;;;;34.67;25.20;;;15.80;99.90;;;;;;5046866;28;20052;-85
2021/09/17 03:28:19;;;;;;;33.78;24.13;;;15.80;99.90;;;;;;5047092;28;20069;-86
2021/09/17 03:30:45;;;;;;;32.05;22.83;;;15.80;99.90;;;;;;5022145;28;20044;-86
2021/09/17 03:33:11;;;;;;;36.95;25.50;;;15.80;99.90;;;;;;5033760;28;20029;-85
2021/09/17 03:35:38;;;;;;;37.85;26.67;;;15.80;99.90;;;;;;5041359;28;20055;-85
2021/09/17 03:38:05;;;;;;;36.00;26.55;;;15.90;99.90;;;;;;5045108;28;20017;-85
2021/09/17 03:40:36;;;;;;;37.67;26.60;;;15.80;99.90;;;;;;5030713;28;20017;-85
2021/09/17 03:43:03;;;;;;;37.67;26.73;;;15.90;99.90;;;;;;5020936;28;20060;-85
2021/09/17 03:45:31;;;;;;;41.50;27.92;;;15.90;99.90;;;;;;5032258;28;20044;-86
2021/09/17 03:47:58;;;;;;;39.00;27.30;;;15.90;99.90;;;;;;5026044;28;20056;-86
2021/09/17 03:50:24;;;;;;;40.35;27.80;;;15.90;99.90;;;;;;5024184;28;20153;-84
2021/09/17 03:52:50;;;;;;;43.88;30.00;;;15.90;99.90;;;;;;5033591;28;20036;-85
2021/09/17 03:55:16;;;;;;;39.25;28.27;;;15.90;99.90;;;;;;5037998;28;20029;-85
2021/09/17 03:57:42;;;;;;;37.22;27.05;;;15.90;99.90;;;;;;5048046;28;20033;-85
2021/09/17 04:00:09;;;;;;;42.40;29.38;;;15.90;99.90;;;;;;5027523;28;20025;-85
2021/09/17 04:02:35;;;;;;;39.65;28.23;;;15.80;99.90;;;;;;5022522;28;20064;-85
2021/09/17 04:05:01;;;;;;;38.88;27.92;;;15.80;99.90;;;;;;5033041;28;20077;-86
2021/09/17 04:07:27;;;;;;;36.35;26.25;;;15.80;99.90;;;;;;5021701;28;20025;-85
2021/09/17 04:09:53;;;;;;;40.65;29.38;;;15.80;99.90;;;;;;5045895;28;20355;-86
2021/09/17 04:12:19;;;;;;;39.88;28.23;;;15.80;99.90;;;;;;5028875;28;20024;-85
2021/09/17 04:14:46;;;;;;;41.20;27.75;;;15.80;99.90;;;;;;5021032;28;20440;-85
2021/09/17 04:17:12;;;;;;;39.35;27.30;;;15.80;99.90;;;;;;5033144;28;20031;-86
2021/09/17 04:19:39;;;;;;;40.42;27.73;;;15.90;99.90;;;;;;5023043;28;20043;-85
2021/09/17 04:22:06;;;;;;;41.22;27.75;;;15.90;99.90;;;;;;5026896;28;20029;-86
2021/09/17 04:24:32;;;;;;;37.75;26.92;;;15.80;99.90;;;;;;5047745;28;20108;-86
2021/09/17 04:26:58;;;;;;;37.08;26.63;;;15.80;99.90;;;;;;5019468;28;20025;-86
2021/09/17 04:29:24;;;;;;;39.95;28.08;;;15.80;99.90;;;;;;5049750;28;20025;-85
2021/09/17 04:31:50;;;;;;;39.10;27.27;;;15.80;99.90;;;;;;5024250;28;20033;-85
2021/09/17 04:34:16;;;;;;;39.80;28.35;;;15.90;99.90;;;;;;5024165;28;20052;-86
2021/09/17 04:36:42;;;;;;;37.97;27.63;;;15.90;99.90;;;;;;5048612;28;20426;-85
2021/09/17 04:39:08;;;;;;;36.25;26.30;;;15.90;99.90;;;;;;5018228;28;20387;-84
2021/09/17 04:41:34;;;;;;;37.95;27.13;;;15.90;99.90;;;;;;5028381;28;20026;-85
2021/09/17 04:44:00;;;;;;;35.78;27.52;;;15.90;99.90;;;;;;5040779;28;20033;-85
2021/09/17 04:46:26;;;;;;;38.80;28.23;;;15.90;99.90;;;;;;5021282;28;20022;-85
2021/09/17 04:48:52;;;;;;;38.30;27.17;;;15.90;99.90;;;;;;5030425;28;20029;-85
2021/09/17 04:51:18;;;;;;;38.55;29.25;;;15.90;99.90;;;;;;5014189;28;20499;-85
2021/09/17 04:53:44;;;;;;;35.00;27.50;;;15.90;99.90;;;;;;5038683;28;20032;-85
2021/09/17 04:56:10;;;;;;;37.35;27.20;;;16.00;99.90;;;;;;5023253;28;20037;-85
2021/09/17 04:58:36;;;;;;;35.60;26.95;;;15.90;99.90;;;;;;5027283;28;20036;-85
2021/09/17 05:01:02;;;;;;;35.95;27.77;;;15.90;99.90;;;;;;5032536;28;20025;-85
2021/09/17 05:03:29;;;;;;;37.83;27.40;;;15.90;99.90;;;;;;5018382;28;20614;-85
2021/09/17 05:05:55;;;;;;;36.58;25.52;;;15.90;99.90;;;;;;5029837;28;20432;-85
2021/09/17 05:08:21;;;;;;;40.22;28.77;;;15.90;99.90;;;;;;5021428;28;20037;-86
2021/09/17 05:10:48;;;;;;;39.53;28.65;;;15.90;99.90;;;;;;5020624;28;20454;-86
2021/09/17 05:13:14;;;;;;;41.10;28.85;;;15.90;99.90;;;;;;5019035;28;20126;-87
2021/09/17 05:15:40;;;;;;;38.55;28.98;;;15.90;99.90;;;;;;5021109;28;20030;-86
2021/09/17 05:18:06;;;;;;;38.88;27.13;;;15.90;99.90;;;;;;5019709;28;20085;-86
2021/09/17 05:20:32;;;;;;;37.38;26.85;;;15.90;99.90;;;;;;5024732;28;20358;-86
2021/09/17 05:22:59;;;;;;;38.33;27.92;;;15.90;99.90;;;;;;5014819;28;20041;-85
2021/09/17 05:25:25;;;;;;;40.97;28.40;;;15.90;99.90;;;;;;5025344;28;20021;-86
2021/09/17 05:27:51;;;;;;;38.40;28.20;;;15.90;99.90;;;;;;5021239;28;20025;-86
2021/09/17 05:30:17;;;;;;;41.58;31.10;;;15.90;99.90;;;;;;5023088;28;20026;-86
2021/09/17 05:32:43;;;;;;;40.55;28.63;;;16.00;99.90;;;;;;5013775;28;20025;-87
2021/09/17 05:35:12;;;;;;;39.30;28.90;;;16.00;99.90;;;;;;5017833;28;20097;-87
2021/09/17 05:37:38;;;;;;;38.65;28.65;;;16.00;99.90;;;;;;5020694;28;20038;-88
2021/09/17 05:40:06;;;;;;;36.25;26.35;;;16.00;99.90;;;;;;5019785;28;20458;-86
2021/09/17 05:42:32;;;;;;;36.70;27.08;;;16.00;99.90;;;;;;5013120;28;20048;-86
2021/09/17 05:44:58;;;;;;;35.92;27.05;;;16.00;99.90;;;;;;5013363;28;20026;-84
2021/09/17 05:47:24;;;;;;;34.65;26.45;;;16.00;99.90;;;;;;5029959;28;20409;-86
2021/09/17 05:49:50;;;;;;;37.05;28.08;;;16.00;99.90;;;;;;5027891;28;20033;-86
2021/09/17 05:52:17;;;;;;;40.10;29.77;;;16.00;99.90;;;;;;5028430;28;20029;-87
2021/09/17 05:54:43;;;;;;;38.88;29.17;;;16.00;99.90;;;;;;5029284;28;20033;-85
2021/09/17 05:57:09;;;;;;;37.83;28.70;;;15.90;99.90;;;;;;5012889;28;20087;-86
2021/09/17 05:59:36;;;;;;;38.15;28.80;;;15.90;99.90;;;;;;5013081;28;20026;-85
2021/09/17 06:02:05;;;;;;;37.03;27.30;;;15.90;99.90;;;;;;5014037;28;20049;-87
2021/09/17 06:04:32;;;;;;;36.20;26.42;;;15.90;99.90;;;;;;5018678;28;20038;-86
2021/09/17 06:06:58;;;;;;;33.92;25.52;;;15.90;99.90;;;;;;5022184;28;20018;-85
2021/09/17 06:09:24;;;;;;;32.38;25.15;;;16.00;99.90;;;;;;5042104;28;20030;-86
2021/09/17 06:11:50;;;;;;;33.85;25.35;;;15.90;99.90;;;;;;5027126;28;20503;-86
2021/09/17 06:14:17;;;;;;;33.78;25.38;;;16.00;99.90;;;;;;5028497;28;20025;-86
2021/09/17 06:16:45;;;;;;;33.28;25.42;;;16.00;99.90;;;;;;5042390;28;20041;-85
2021/09/17 06:19:12;;;;;;;36.08;26.00;;;16.00;99.90;;;;;;5028723;28;20093;-85
2021/09/17 06:21:39;;;;;;;33.40;25.75;;;16.00;99.90;;;;;;5037057;28;20087;-85
2021/09/17 06:24:05;;;;;;;36.20;26.90;;;16.10;99.90;;;;;;5054570;28;20056;-86
2021/09/17 06:26:31;;;;;;;33.67;25.80;;;16.10;99.90;;;;;;5023367;28;20079;-85
2021/09/17 06:29:03;;;;;;;32.75;24.17;;;16.20;99.90;;;;;;5020415;28;20033;-85
2021/09/17 06:31:31;;;;;;;32.83;24.42;;;16.20;99.90;;;;;;5036817;28;20029;-86
2021/09/17 06:33:57;;;;;;;31.08;24.08;;;16.20;99.90;;;;;;5053751;28;20600;-85
2021/09/17 06:36:24;;;;;;;34.17;27.17;;;16.30;99.90;;;;;;5045798;28;20052;-86
2021/09/17 06:38:55;;;;;;;33.00;25.77;;;16.40;99.90;;;;;;5034790;28;20045;-86
2021/09/17 06:41:23;;;;;;;37.20;27.73;;;16.50;99.90;;;;;;5017264;28;20382;-86
2021/09/17 06:43:49;;;;;;;34.50;26.88;;;16.50;99.90;;;;;;5025308;28;20061;-85
2021/09/17 06:46:15;;;;;;;34.75;25.90;;;16.60;99.90;;;;;;5036497;28;20017;-86
2021/09/17 06:48:41;;;;;;;37.50;29.83;;;16.60;99.90;;;;;;5036145;28;20053;-85
2021/09/17 06:51:07;;;;;;;34.30;27.67;;;16.60;99.90;;;;;;5046251;28;20025;-86
2021/09/17 06:53:34;;;;;;;34.60;26.85;;;16.70;99.90;;;;;;5026077;28;20427;-86
2021/09/17 06:56:00;;;;;;;38.25;29.30;;;16.80;99.90;;;;;;5036142;28;20033;-85
2021/09/17 06:58:31;;;;;;;35.88;27.15;;;16.80;99.90;;;;;;5036110;28;20041;-87
2021/09/17 07:00:58;;;;;;;36.08;28.40;;;16.90;99.90;;;;;;5032765;28;20021;-86
2021/09/17 07:03:26;;;;;;;36.28;28.73;;;16.90;99.90;;;;;;5021452;28;20021;-85
2021/09/17 07:05:54;;;;;;;35.55;28.02;;;17.00;99.90;;;;;;5029811;28;20144;-86
2021/09/17 07:08:21;;;;;;;33.60;26.58;;;17.10;99.90;;;;;;5034013;28;20084;-86
2021/09/17 07:10:50;;;;;;;35.00;27.50;;;17.10;99.90;;;;;;5028846;28;20432;-86
2021/09/17 07:13:21;;;;;;;34.90;26.35;;;17.20;99.90;;;;;;5015784;28;20057;-86
2021/09/17 07:15:47;;;;;;;31.85;24.65;;;17.30;99.90;;;;;;5016957;28;20107;-86
2021/09/17 07:18:15;;;;;;;31.65;24.88;;;17.30;99.90;;;;;;5015985;28;20034;-85
2021/09/17 07:20:43;;;;;;;30.77;24.13;;;17.30;99.90;;;;;;5015255;28;20026;-86
2021/09/17 07:23:14;;;;;;;30.90;24.27;;;17.30;99.90;;;;;;5030736;28;20026;-86
2021/09/17 07:25:40;;;;;;;27.38;22.80;;;17.30;99.90;;;;;;5032992;28;20440;-86
2021/09/17 07:28:07;;;;;;;28.52;21.88;;;17.30;99.90;;;;;;5031986;28;20033;-85
2021/09/17 07:30:33;;;;;;;24.75;20.30;;;17.30;99.90;;;;;;5032253;28;20029;-86
2021/09/17 07:33:02;;;;;;;26.92;20.20;;;17.40;99.90;;;;;;5016284;28;20030;-85
2021/09/17 07:35:33;;;;;;;25.92;20.25;;;17.40;99.90;;;;;;5021589;28;20029;-85
2021/09/17 07:37:59;;;;;;;25.33;18.60;;;17.40;99.90;;;;;;5032060;28;20041;-86
2021/09/17 07:40:28;;;;;;;22.10;17.85;;;17.40;99.90;;;;;;5032112;28;20075;-85
2021/09/17 07:42:54;;;;;;;22.13;17.73;;;17.50;99.90;;;;;;5017285;28;20022;-85
2021/09/17 07:45:24;;;;;;;26.58;20.02;;;17.50;99.90;;;;;;5015274;28;20091;-86
2021/09/17 07:47:51;;;;;;;26.90;21.20;;;17.60;99.90;;;;;;5015531;28;20116;-86
2021/09/17 07:50:18;;;;;;;27.80;23.42;;;17.60;99.90;;;;;;5015201;28;20546;-86
2021/09/17 07:52:45;;;;;;;27.20;21.58;;;17.70;99.90;;;;;;5028434;28;20033;-86
2021/09/17 07:55:11;;;;;;;26.38;21.73;;;17.80;99.90;;;;;;5030744;28;20055;-86
2021/09/17 07:57:38;;;;;;;21.63;18.13;;;17.90;99.90;;;;;;5031963;28;20358;-86
2021/09/17 08:00:06;;;;;;;23.17;18.55;;;18.00;99.90;;;;;;5031994;28;20378;-87
2021/09/17 08:02:33;;;;;;;31.33;22.90;;;18.10;99.90;;;;;;5019154;28;20034;-87
2021/09/17 08:04:59;;;;;;;24.48;20.30;;;18.20;99.90;;;;;;5015765;28;20132;-86
2021/09/17 08:07:26;;;;;;;24.02;19.20;;;18.20;99.90;;;;;;5019111;28;20025;-86
2021/09/17 08:09:52;;;;;;;20.80;18.27;;;18.30;99.90;;;;;;5031232;28;20037;-86
2021/09/17 08:12:18;;;;;;;20.42;16.98;;;18.50;99.90;;;;;;5019965;28;20022;-86
2021/09/17 08:14:44;;;;;;;20.55;16.65;;;18.60;99.90;;;;;;5014975;28;20022;-85
2021/09/17 08:17:10;;;;;;;19.63;16.10;;;18.70;99.90;;;;;;5015839;28;20068;-86
2021/09/17 08:19:37;;;;;;;18.80;15.02;;;18.90;99.90;;;;;;5014862;28;20049;-86
2021/09/17 08:22:03;;;;;;;19.63;15.93;;;18.90;99.90;;;;;;5023412;28;20481;-86
2021/09/17 08:24:29;;;;;;;19.08;16.55;;;19.10;99.90;;;;;;5031269;28;20025;-86
2021/09/17 08:26:57;;;;;;;20.58;17.05;;;19.20;99.90;;;;;;5029785;28;20032;-86
2021/09/17 08:29:24;;;;;;;18.55;15.18;;;19.30;99.90;;;;;;5031272;28;20021;-86
2021/09/17 08:31:51;;;;;;;22.27;18.95;;;19.40;99.90;;;;;;5023088;28;20379;-86
2021/09/17 08:34:17;;;;;;;24.77;20.58;;;19.60;99.90;;;;;;5014164;28;20033;-86
2021/09/17 08:36:44;;;;;;;24.10;21.38;;;19.60;99.90;;;;;;5018608;28;20080;-86
2021/09/17 08:39:10;;;;;;;23.17;19.58;;;19.50;99.90;;;;;;5020440;28;20104;-86
2021/09/17 08:41:38;;;;;;;24.10;17.92;;;19.60;99.90;;;;;;5019827;28;20041;-87
2021/09/17 08:44:05;;;;;;;24.27;20.00;;;19.60;99.90;;;;;;5014763;28;20678;-85
2021/09/17 08:46:41;;;;;;;24.05;19.88;;;19.70;99.90;;;;;;5007970;28;20032;-87
2021/09/17 08:49:11;;;;;;;24.17;21.17;;;19.90;99.90;;;;;;5027647;28;20010;-87
2021/09/17 08:51:38;;;;;;;26.92;22.25;;;20.00;99.90;;;;;;5029347;28;20048;-87
2021/09/17 08:54:04;;;;;;;25.05;21.00;;;20.20;99.90;;;;;;5012406;28;20118;-87
2021/09/17 08:56:31;;;;;;;21.75;18.60;;;20.40;99.90;;;;;;5029046;28;20466;-86
2021/09/17 08:58:56;;;;;;;19.90;16.30;;;20.60;99.90;;;;;;5027037;28;20037;-86
2021/09/17 09:01:28;;;;;;;18.63;15.75;;;20.60;99.90;;;;;;5025823;28;20064;-87
2021/09/17 09:03:59;;;;;;;18.90;15.23;;;20.80;99.90;;;;;;5011873;28;20335;-87
2021/09/17 09:06:34;;;;;;;17.05;14.27;;;20.80;99.90;;;;;;4996083;28;20057;-87
2021/09/17 09:09:01;;;;;;;19.05;16.15;;;20.90;99.90;;;;;;5014870;28;20034;-86
2021/09/17 09:11:30;;;;;;;17.63;15.25;;;20.90;99.90;;;;;;5000732;28;20044;-86
2021/09/17 09:14:12;;;;;;;17.13;14.98;;;21.00;99.90;;;;;;5030277;28;20026;-86
2021/09/17 09:16:44;;;;;;;18.70;15.97;;;21.10;99.90;;;;;;5030364;28;20068;-87
2021/09/17 09:19:27;;;;;;;16.65;14.50;;;21.10;99.90;;;;;;4996935;28;20304;-87
2021/09/17 09:22:02;;;;;;;;;;;21.20;99.90;;;;;;5020522;28;20036;-87
2021/09/17 09:24:28;;;;;;;14.32;12.27;;;21.00;99.90;;;;;;5030283;28;19960;-86
2021/09/17 09:27:15;;;;;;;15.40;13.70;;;21.00;99.90;;;;;;5011808;28;20033;-86
2021/09/17 09:29:43;;;;;;;13.80;11.32;;;21.00;99.90;;;;;;5029469;28;20052;-87
2021/09/17 09:32:34;;;;;;;13.60;11.88;;;21.00;99.90;;;;;;5019749;28;20026;-87
2021/09/17 09:35:06;;;;;;;14.82;12.68;;;21.20;99.90;;;;;;4996773;28;20279;-86
2021/09/17 09:37:39;;;;;;;14.25;11.77;;;21.10;99.90;;;;;;5013176;28;20029;-87
2021/09/17 09:40:12;;;;;;;14.25;11.90;;;21.10;99.90;;;;;;5013368;28;20026;-86
2021/09/17 09:42:40;;;;;;;13.35;11.75;;;21.00;99.90;;;;;;5013705;28;20363;-87
2021/09/17 09:45:21;;;;;;;15.40;12.75;;;20.90;99.90;;;;;;5013674;28;20402;-87
2021/09/17 09:47:54;;;;;;;15.15;13.20;;;20.90;99.90;;;;;;5013450;28;20026;-86
2021/09/17 09:50:27;;;;;;;17.00;13.70;;;20.80;99.90;;;;;;5011097;28;20067;-87
2021/09/17 09:53:03;;;;;;;16.93;14.43;;;20.70;99.90;;;;;;5010984;28;20018;-86
2021/09/17 09:55:34;;;;;;;20.15;15.63;;;20.70;99.90;;;;;;5010944;28;20467;-86
2021/09/17 09:58:01;;;;;;;15.65;13.48;;;20.70;99.90;;;;;;5011306;28;20232;-85
2021/09/17 10:00:28;;;;;;;14.82;12.43;;;20.70;99.90;;;;;;5012411;28;20105;-86
2021/09/17 10:02:55;;;;;;;15.23;12.82;;;20.70;99.90;;;;;;4994959;28;20700;-86
2021/09/17 10:05:25;;;;;;;17.02;14.32;;;20.80;99.90;;;;;;5011162;28;20172;-86
2021/09/17 10:07:52;;;;;;;19.85;15.80;;;20.90;99.90;;;;;;5029461;28;20033;-86
2021/09/17 10:10:28;;;;;;;16.08;14.38;;;21.00;99.90;;;;;;5010202;28;20510;-87
2021/09/17 10:12:54;;;;;;;16.08;14.38;;;21.10;99.90;;;;;;5019704;28;20049;-86
2021/09/17 10:15:24;;;;;;;17.55;14.35;;;21.20;99.90;;;;;;4998136;28;20030;-86
2021/09/17 10:17:52;;;;;;;15.70;13.88;;;21.30;99.90;;;;;;4992850;28;20042;-86
2021/09/17 10:20:18;;;;;;;21.27;18.23;;;21.40;99.90;;;;;;5014289;28;20030;-86
2021/09/17 10:22:45;;;;;;;20.42;17.02;;;21.30;99.90;;;;;;5014565;28;20032;-88
2021/09/17 10:25:22;;;;;;;19.00;15.27;;;21.20;99.90;;;;;;5010544;28;20045;-87
2021/09/17 10:28:03;;;;;;;17.40;14.15;;;21.20;99.90;;;;;;5027876;28;20044;-85
2021/09/17 10:30:32;;;;;;;16.23;13.82;;;21.20;99.90;;;;;;5027562;28;20112;-87
2021/09/17 10:32:58;;;;;;;20.38;16.95;;;21.30;99.90;;;;;;4995469;28;20084;-86
2021/09/17 10:35:29;;;;;;;22.35;17.77;;;21.30;99.90;;;;;;5027551;28;20017;-86
2021/09/17 10:38:17;;;;;;;23.23;18.83;;;21.40;99.90;;;;;;5027275;28;20116;-87
2021/09/17 10:40:47;;;;;;;20.60;17.77;;;21.50;99.90;;;;;;5015642;28;20044;-87
2021/09/17 10:43:17;;;;;;;20.42;17.95;;;21.50;99.90;;;;;;5011806;28;20034;-85
2021/09/17 10:45:47;;;;;;;23.40;18.40;;;21.50;99.90;;;;;;5027550;28;20341;-86
2021/09/17 10:48:16;;;;;;;20.88;18.38;;;21.50;99.90;;;;;;5012414;28;20049;-87
2021/09/17 10:50:59;;;;;;;20.73;17.13;;;21.50;99.90;;;;;;5029523;28;20021;-86
2021/09/17 10:54:13;;;;;;;24.40;18.70;;;21.50;99.90;;;;;;5010887;28;20030;-87
2021/09/17 10:57:05;;;;;;;23.00;18.50;;;21.60;99.90;;;;;;5006029;28;20125;-87
2021/09/17 10:59:42;;;;;;;20.92;16.77;;;21.60;99.90;;;;;;5016401;28;20037;-88
2021/09/17 11:02:10;;;;;;;18.80;14.63;;;21.60;99.90;;;;;;5029490;28;20037;-87
2021/09/17 11:04:43;;;;;;;17.98;14.57;;;21.70;99.90;;;;;;5021077;28;20026;-86
2021/09/17 11:07:25;;;;;;;20.05;16.70;;;21.80;99.90;;;;;;5026828;28;20013;-87
2021/09/17 11:09:57;;;;;;;20.77;17.77;;;21.80;99.90;;;;;;5036591;28;20068;-87
2021/09/17 11:12:39;;;;;;;19.42;15.55;;;21.80;99.90;;;;;;5047058;28;20029;-87
2021/09/17 11:15:18;;;;;;;19.20;16.55;;;21.90;99.90;;;;;;5032364;28;20030;-87
2021/09/17 11:17:53;;;;;;;19.75;14.82;;;22.10;99.90;;;;;;5029730;28;20451;-86
2021/09/17 11:20:29;;;;;;;15.55;13.05;;;22.30;99.90;;;;;;5036017;28;20048;-86
2021/09/17 11:23:04;;;;;;;16.35;14.20;;;22.40;99.90;;;;;;5002123;28;20037;-86
2021/09/17 11:25:40;;;;;;;20.27;17.67;;;22.60;99.90;;;;;;5029813;28;20026;-87
2021/09/17 11:28:32;;;;;;;17.80;14.95;;;22.70;99.90;;;;;;5023303;28;20033;-86
2021/09/17 11:31:17;;;;;;;16.30;14.18;;;22.80;99.90;;;;;;5032186;28;20040;-86
2021/09/17 11:33:54;;;;;;;20.15;17.67;;;23.10;99.90;;;;;;5024184;28;20021;-85
2021/09/17 11:36:38;;;;;;;19.17;15.15;;;23.50;99.90;;;;;;5021404;28;20385;-86
2021/09/17 11:39:23;;;;;;;18.02;15.38;;;23.90;99.90;;;;;;5026059;28;20052;-86
2021/09/17 11:42:14;;;;;;;15.57;13.30;;;24.50;99.90;;;;;;5022362;28;20029;-87
2021/09/17 11:44:48;;;;;;;17.38;15.00;;;25.00;99.90;;;;;;5048464;28;20075;-86
2021/09/17 11:47:29;;;;;;;15.50;12.90;;;25.70;99.90;;;;;;5022929;28;20025;-87
2021/09/17 11:50:03;;;;;;;16.92;13.75;;;26.60;99.90;;;;;;5022897;28;20025;-87
2021/09/17 11:52:37;;;;;;;15.52;13.30;;;27.40;99.90;;;;;;5022324;28;20037;-87
2021/09/17 11:55:10;;;;;;;16.00;12.98;;;27.90;99.90;;;;;;5028747;28;20017;-87
2021/09/17 11:57:43;;;;;;;16.27;13.73;;;28.60;99.90;;;;;;5048783;28;20036;-87
2021/09/17 12:00:19;;;;;;;15.95;13.52;;;29.10;99.90;;;;;;5048827;28;20033;-86
2021/09/17 12:02:54;;;;;;;13.25;11.85;;;29.40;99.90;;;;;;5045069;28;20017;-86
2021/09/17 12:05:27;;;;;;;17.98;15.02;;;29.00;99.90;;;;;;5021645;28;20462;-87
2021/09/17 12:07:54;;;;;;;16.50;13.45;;;28.90;99.70;;;;;;5039307;28;20041;-87
2021/09/17 12:10:30;;;;;;;15.80;14.15;;;28.80;99.70;;;;;;5040366;28;20026;-87
2021/09/17 12:13:06;;;;;;;13.93;12.50;;;29.20;99.10;;;;;;5019288;28;20033;-87
2021/09/17 12:15:37;;;;;;;13.63;11.63;;;29.60;98.20;;;;;;5021888;28;20116;-87
2021/09/17 12:18:06;;;;;;;;;;;29.20;97.80;;;;;;5040241;28;20022;-87
2021/09/17 12:20:43;;;;;;;11.32;9.32;;;28.60;98.50;;;;;;5024737;28;19919;-87
2021/09/17 12:23:14;;;;;;;14.43;11.77;;;28.70;98.60;;;;;;5040226;28;20021;-86
2021/09/17 12:25:42;;;;;;;17.08;14.55;;;28.40;98.30;;;;;;5022655;28;20037;-86
2021/09/17 12:28:13;;;;;;;14.23;11.45;;;27.90;98.20;;;;;;5047577;28;20033;-86
2021/09/17 12:30:40;;;;;;;18.15;15.48;;;27.40;98.90;;;;;;5044861;28;20052;-86
2021/09/17 12:33:26;;;;;;;15.38;13.75;;;27.40;98.70;;;;;;5026598;28;20025;-87
2021/09/17 12:35:54;;;;;;;18.75;16.02;;;27.90;98.50;;;;;;5029628;28;20120;-86